Etusivu
METAR-TAF:

METAR-TAF

Lentoasemat :

Rygge, Norja

Leveyspiiri: 59-23N, Pituuspiiri: 010-47E, korkeus merenpinnasta: 5 m

Tämänhetkinen sää

Tämä raportti tehtiin 36 minuuttia sitten, kello 11.50 UTC
Tuuli 8 kn luoteesta
Lämpötila 14°C
Kosteus 38%
Ilmanpaine 1003 hPa
Näkyvyys 10 km tai enemmän

METAR: ENRY 231150Z AUTO 31008KT 9999NDV NCD 14/M00 Q1003

Aika: 14:26 (12:26 UTC)

Sääennuste

Ennuste voimassa 23. päivästä klo 12 UTC - 24. päivään klo 12 UTC
Tuuli 10 kn pohjoisen/luoteesta
Näkyvyys 10 km tai enemmän
ei pilviä alle 1500 m:ssä eikä cumulonimbus-pilviä

TAF: ENRY 2312/2412 34010KT CAVOK

Säähavainnot ja -ennusteet yli 4000 lentoasemalta (METAR- ja TAF-raportit).

Käytössä olevat sääasemat on merkitty karttaan keltaisilla ja punaisilla pisteillä.

Aseta hiiri pisteen päälle nähdäksesi sääaseman nimen.

Klikkaa sitten nähdäksesi säähavainnot ja -ennusteet.

Kartan vaihtaminen: klikkaa mustalla rastilla varustettuja vihreitä pisteitä, niin voit zoomata sisään; viivalla varustettua vihreää pistettä, niin voit zoomata ulos tai vihreitä nuolia, niin pääset viereisille kartoille.


METAR-TAF: